createdAt,value
2019-02-27T00:00:47.632Z,1026.85
2019-02-27T00:01:49.683Z,1026.85
2019-02-27T00:02:47.612Z,1026.83
2019-02-27T00:03:47.600Z,1026.78
2019-02-27T00:04:47.584Z,1026.79
2019-02-27T00:05:47.574Z,1026.76
2019-02-27T00:06:48.432Z,1026.79
2019-02-27T00:07:47.551Z,1026.82
2019-02-27T00:08:47.542Z,1026.88
2019-02-27T00:09:47.542Z,1026.86
2019-02-27T00:10:47.515Z,1026.89
2019-02-27T00:11:47.506Z,1026.87
2019-02-27T00:12:51.763Z,1026.84
2019-02-27T00:13:47.482Z,1026.86
2019-02-27T00:14:47.474Z,1026.86
2019-02-27T00:15:47.465Z,1026.88
2019-02-27T00:16:47.446Z,1026.91
2019-02-27T00:17:51.134Z,1026.83
2019-02-27T00:18:47.423Z,1026.84
2019-02-27T00:19:47.414Z,1026.84
2019-02-27T00:20:47.400Z,1026.77
2019-02-27T00:21:47.389Z,1026.83
2019-02-27T00:22:50.247Z,1026.82
2019-02-27T00:23:47.372Z,1026.78
2019-02-27T00:24:47.354Z,1026.84
2019-02-27T00:25:47.347Z,1026.79
2019-02-27T00:26:47.335Z,1026.80
2019-02-27T00:27:49.151Z,1026.78
2019-02-27T00:28:47.314Z,1026.71
2019-02-27T00:29:47.309Z,1026.72
2019-02-27T00:30:47.286Z,1026.71
2019-02-27T00:31:47.283Z,1026.73
2019-02-27T00:32:50.891Z,1026.68
2019-02-27T00:33:47.259Z,1026.63
2019-02-27T00:34:47.239Z,1026.61
2019-02-27T00:35:47.228Z,1026.60
2019-02-27T00:36:47.219Z,1026.64
2019-02-27T00:37:47.207Z,1026.61
2019-02-27T00:38:47.197Z,1026.63
2019-02-27T00:39:47.197Z,1026.69
2019-02-27T00:40:47.171Z,1026.65
2019-02-27T00:41:47.159Z,1026.62
2019-02-27T00:42:47.150Z,1026.64
2019-02-27T00:43:47.137Z,1026.67
2019-02-27T00:44:47.126Z,1026.65
2019-02-27T00:45:47.117Z,1026.64
2019-02-27T00:46:47.109Z,1026.65
2019-02-27T00:47:47.095Z,1026.68
2019-02-27T00:48:47.081Z,1026.72
2019-02-27T00:49:47.068Z,1026.66
2019-02-27T00:50:47.058Z,1026.68
2019-02-27T00:51:47.046Z,1026.65
2019-02-27T00:52:50.912Z,1026.61
2019-02-27T00:53:47.030Z,1026.60
2019-02-27T00:54:47.013Z,1026.57
2019-02-27T00:55:47.003Z,1026.57
2019-02-27T00:56:47.000Z,1026.55
2019-02-27T00:57:46.977Z,1026.53
2019-02-27T00:58:46.969Z,1026.51
2019-02-27T00:59:46.954Z,1026.52
2019-02-27T01:00:46.943Z,1026.50
2019-02-27T01:01:47.515Z,1026.52
2019-02-27T01:02:46.929Z,1026.48
2019-02-27T01:03:46.909Z,1026.52
2019-02-27T01:04:46.899Z,1026.51
2019-02-27T01:05:46.888Z,1026.56
2019-02-27T01:06:47.438Z,1026.55
2019-02-27T01:07:46.863Z,1026.57
2019-02-27T01:08:46.854Z,1026.50
2019-02-27T01:09:46.840Z,1026.54
2019-02-27T01:10:46.830Z,1026.49
2019-02-27T01:11:51.650Z,1026.56
2019-02-27T01:12:46.808Z,1026.50
2019-02-27T01:13:46.797Z,1026.45
2019-02-27T01:14:46.784Z,1026.45
2019-02-27T01:15:46.770Z,1026.42
2019-02-27T01:16:47.678Z,1026.47
2019-02-27T01:17:46.748Z,1026.44
2019-02-27T01:18:46.743Z,1026.47
2019-02-27T01:19:46.731Z,1026.47
2019-02-27T01:20:46.714Z,1026.50
2019-02-27T01:21:46.702Z,1026.44
2019-02-27T01:22:46.691Z,1026.40
2019-02-27T01:23:46.680Z,1026.37
2019-02-27T01:24:49.943Z,1026.41
2019-02-27T01:25:46.656Z,1026.33
2019-02-27T01:26:46.645Z,1026.47
2019-02-27T01:27:46.637Z,1026.41
2019-02-27T01:28:46.630Z,1026.36
2019-02-27T01:29:50.958Z,1026.34
2019-02-27T01:30:46.602Z,1026.40
2019-02-27T01:31:46.591Z,1026.40
2019-02-27T01:32:46.585Z,1026.36
2019-02-27T01:33:46.566Z,1026.34
2019-02-27T01:34:46.556Z,1026.38
2019-02-27T01:35:51.343Z,1026.38
2019-02-27T01:36:46.529Z,1026.41
2019-02-27T01:37:46.521Z,1026.40
2019-02-27T01:38:46.513Z,1026.40
2019-02-27T01:39:46.497Z,1026.40
2019-02-27T01:40:48.939Z,1026.31
2019-02-27T01:41:46.473Z,1026.37
2019-02-27T01:42:46.461Z,1026.32
2019-02-27T01:43:46.460Z,1026.34
2019-02-27T01:44:47.169Z,1026.36
2019-02-27T01:45:46.434Z,1026.34
2019-02-27T01:46:46.415Z,1026.26
2019-02-27T01:47:46.404Z,1026.34
2019-02-27T01:48:46.393Z,1026.27
2019-02-27T01:49:48.930Z,1026.30
2019-02-27T01:50:46.370Z,1026.20
2019-02-27T01:51:46.358Z,1026.22
2019-02-27T01:52:46.348Z,1026.20
2019-02-27T01:53:46.338Z,1026.20
2019-02-27T01:54:48.844Z,1026.17
2019-02-27T01:55:46.316Z,1026.18
2019-02-27T01:56:46.304Z,1026.19
2019-02-27T01:57:46.307Z,1026.14
2019-02-27T01:58:46.282Z,1026.15
2019-02-27T01:59:50.047Z,1026.10
2019-02-27T02:00:46.257Z,1026.08
2019-02-27T02:01:46.257Z,1026.03
2019-02-27T02:02:46.234Z,1026.03
2019-02-27T02:03:47.558Z,1026.03
2019-02-27T02:04:46.210Z,1026.04
2019-02-27T02:05:46.199Z,1026.02
2019-02-27T02:06:46.191Z,1026.03
2019-02-27T02:07:46.177Z,1025.92
2019-02-27T02:08:48.218Z,1025.91
2019-02-27T02:09:46.154Z,1025.93
2019-02-27T02:10:46.149Z,1025.91
2019-02-27T02:11:46.132Z,1025.86
2019-02-27T02:12:46.120Z,1025.84
2019-02-27T02:13:48.347Z,1025.82
2019-02-27T02:14:46.102Z,1025.83
2019-02-27T02:15:46.086Z,1025.82
2019-02-27T02:16:46.074Z,1025.79
2019-02-27T02:17:46.062Z,1025.75
2019-02-27T02:18:48.227Z,1025.73
2019-02-27T02:19:46.039Z,1025.77
2019-02-27T02:20:46.061Z,1025.74
2019-02-27T02:21:46.025Z,1025.72
2019-02-27T02:22:46.020Z,1025.70
2019-02-27T02:23:47.795Z,1025.72
2019-02-27T02:24:45.984Z,1025.73
2019-02-27T02:25:45.980Z,1025.74
2019-02-27T02:26:45.963Z,1025.76
2019-02-27T02:27:45.949Z,1025.72
2019-02-27T02:28:48.060Z,1025.70
2019-02-27T02:29:45.929Z,1025.72
2019-02-27T02:30:45.917Z,1025.71
2019-02-27T02:31:45.905Z,1025.71
2019-02-27T02:32:51.971Z,1025.71
2019-02-27T02:34:10.367Z,1025.68
2019-02-27T02:35:14.811Z,1025.68
2019-02-27T02:36:10.342Z,1025.64
2019-02-27T02:37:10.335Z,1025.63
2019-02-27T02:38:12.386Z,1025.65
2019-02-27T02:39:10.322Z,1025.58
2019-02-27T02:40:10.305Z,1025.60
2019-02-27T02:41:10.293Z,1025.58
2019-02-27T02:42:10.279Z,1025.53
2019-02-27T02:43:10.266Z,1025.52
2019-02-27T02:44:10.256Z,1025.55
2019-02-27T02:45:10.245Z,1025.50
2019-02-27T02:46:10.242Z,1025.48
2019-02-27T02:47:10.226Z,1025.51
2019-02-27T02:48:10.213Z,1025.50
2019-02-27T02:49:10.206Z,1025.46
2019-02-27T02:50:10.187Z,1025.44
2019-02-27T02:51:10.180Z,1025.48
2019-02-27T02:52:10.168Z,1025.51
2019-02-27T02:53:10.156Z,1025.51
2019-02-27T02:54:10.155Z,1025.50
2019-02-27T02:55:12.566Z,1025.51
2019-02-27T02:56:10.120Z,1025.53
2019-02-27T02:57:10.116Z,1025.55
2019-02-27T02:58:11.353Z,1025.48
2019-02-27T02:59:10.087Z,1025.51
2019-02-27T03:00:10.079Z,1025.49
2019-02-27T03:01:14.174Z,1025.48
2019-02-27T03:02:10.054Z,1025.45
2019-02-27T03:03:10.042Z,1025.48
2019-02-27T03:04:12.782Z,1025.48
2019-02-27T03:05:10.023Z,1025.46
2019-02-27T03:06:10.012Z,1025.44
2019-02-27T03:07:11.032Z,1025.47
2019-02-27T03:08:09.987Z,1025.44
2019-02-27T03:09:09.981Z,1025.47
2019-02-27T03:10:09.979Z,1025.50
2019-02-27T03:11:09.953Z,1025.46
2019-02-27T03:12:09.944Z,1025.49
2019-02-27T03:13:09.930Z,1025.43
2019-02-27T03:14:09.925Z,1025.44
2019-02-27T03:15:09.917Z,1025.42
2019-02-27T03:16:09.898Z,1025.45
2019-02-27T03:17:09.888Z,1025.48
2019-02-27T03:18:09.876Z,1025.44
2019-02-27T03:19:09.864Z,1025.44
2019-02-27T03:20:09.861Z,1025.35
2019-02-27T03:21:09.856Z,1025.46
2019-02-27T03:22:09.833Z,1025.40
2019-02-27T03:23:15.352Z,1025.42
2019-02-27T03:24:34.296Z,1025.36
2019-02-27T03:25:40.140Z,1025.34
2019-02-27T03:26:58.756Z,1025.41
2019-02-27T03:28:04.452Z,1025.34
2019-02-27T03:29:23.213Z,1025.36
2019-02-27T03:30:33.953Z,1025.31
2019-02-27T03:31:57.650Z,1025.36
2019-02-27T03:33:23.099Z,1025.32
2019-02-27T03:34:48.007Z,1025.34
2019-02-27T03:36:03.321Z,1025.34
2019-02-27T03:37:01.064Z,1025.25
2019-02-27T03:38:01.061Z,1025.32
2019-02-27T03:39:01.044Z,1025.26
2019-02-27T03:40:01.031Z,1025.25
2019-02-27T03:41:01.027Z,1025.23
2019-02-27T03:42:01.008Z,1025.24
2019-02-27T03:43:01.002Z,1025.25
2019-02-27T03:44:00.988Z,1025.24
2019-02-27T03:45:00.977Z,1025.22
2019-02-27T03:46:03.127Z,1025.23
2019-02-27T03:47:00.952Z,1025.24
2019-02-27T03:48:00.940Z,1025.26
2019-02-27T03:49:03.696Z,1025.26
2019-02-27T03:50:00.924Z,1025.28
2019-02-27T03:51:00.911Z,1025.24
2019-02-27T03:52:01.411Z,1025.22
2019-02-27T03:53:00.893Z,1025.21
2019-02-27T03:54:00.878Z,1025.23
2019-02-27T03:55:00.866Z,1025.14
2019-02-27T03:56:00.858Z,1025.19
2019-02-27T03:57:00.839Z,1025.18
2019-02-27T03:58:00.831Z,1025.18
2019-02-27T03:59:05.542Z,1025.18
2019-02-27T04:00:00.804Z,1025.16
2019-02-27T04:01:00.795Z,1025.16
2019-02-27T04:02:05.884Z,1025.14
2019-02-27T04:03:25.258Z,1025.16
2019-02-27T04:04:29.670Z,1025.15
2019-02-27T04:05:25.232Z,1025.16
2019-02-27T04:06:25.215Z,1025.22
2019-02-27T04:07:25.207Z,1025.20
2019-02-27T04:08:25.192Z,1025.12
2019-02-27T04:09:25.201Z,1025.11
2019-02-27T04:10:30.807Z,1025.14
2019-02-27T04:11:49.641Z,1025.20
2019-02-27T04:12:51.636Z,1025.10
2019-02-27T04:13:49.621Z,1025.13
2019-02-27T04:14:49.651Z,1025.11
2019-02-27T04:15:53.322Z,1025.19
2019-02-27T04:16:49.615Z,1025.11
2019-02-27T04:17:52.369Z,1025.11
2019-02-27T04:18:49.560Z,1025.09
2019-02-27T04:19:49.557Z,1025.08
2019-02-27T04:20:50.689Z,1025.04
2019-02-27T04:21:49.528Z,1025.09
2019-02-27T04:22:49.514Z,1025.07
2019-02-27T04:23:49.506Z,1025.08
2019-02-27T04:24:49.493Z,1025.05
2019-02-27T04:25:49.480Z,1025.01
2019-02-27T04:26:49.474Z,1025.08
2019-02-27T04:27:55.245Z,1024.99
2019-02-27T04:29:13.927Z,1024.98
2019-02-27T04:30:14.974Z,1025.01
2019-02-27T04:31:13.905Z,1025.03
2019-02-27T04:32:13.893Z,1025.04
2019-02-27T04:33:13.885Z,1025.01
2019-02-27T04:34:13.886Z,1025.01
2019-02-27T04:35:13.858Z,1024.98
2019-02-27T04:36:13.848Z,1024.98
2019-02-27T04:37:13.838Z,1024.98
2019-02-27T04:38:13.827Z,1025.00
2019-02-27T04:39:13.815Z,1024.99
2019-02-27T04:40:13.805Z,1025.00
2019-02-27T04:41:17.795Z,1024.96
2019-02-27T04:42:13.786Z,1025.00
2019-02-27T04:43:13.770Z,1024.97
2019-02-27T04:44:13.764Z,1025.03
2019-02-27T04:45:13.747Z,1025.03
2019-02-27T04:46:13.737Z,1024.96
2019-02-27T04:47:13.726Z,1024.97
2019-02-27T04:48:13.715Z,1024.99
2019-02-27T04:49:13.704Z,1024.97
2019-02-27T04:50:13.692Z,1025.00
2019-02-27T04:51:16.920Z,1024.97
2019-02-27T04:52:13.670Z,1024.90
2019-02-27T04:53:13.662Z,1025.00
2019-02-27T04:54:13.650Z,1024.91
2019-02-27T04:55:15.670Z,1024.88
2019-02-27T04:56:13.631Z,1024.85
2019-02-27T04:57:13.621Z,1024.85
2019-02-27T04:58:13.604Z,1024.83
2019-02-27T04:59:18.298Z,1024.83
2019-02-27T05:00:13.583Z,1024.84
2019-02-27T05:01:13.570Z,1024.82
2019-02-27T05:02:14.568Z,1024.79
2019-02-27T05:03:13.548Z,1024.78
2019-02-27T05:04:13.541Z,1024.83
2019-02-27T05:05:13.530Z,1024.78
2019-02-27T05:06:14.571Z,1024.79
2019-02-27T05:07:13.504Z,1024.80
2019-02-27T05:08:13.493Z,1024.79
2019-02-27T05:09:13.486Z,1024.72
2019-02-27T05:10:13.473Z,1024.80
2019-02-27T05:11:14.160Z,1024.82
2019-02-27T05:12:13.462Z,1024.84
2019-02-27T05:13:13.442Z,1024.75
2019-02-27T05:14:13.430Z,1024.76
2019-02-27T05:15:13.423Z,1024.76
2019-02-27T05:16:14.129Z,1024.70
2019-02-27T05:17:13.393Z,1024.70
2019-02-27T05:18:13.386Z,1024.64
2019-02-27T05:19:15.197Z,1024.70
2019-02-27T05:20:13.360Z,1024.67
2019-02-27T05:21:13.358Z,1024.61
2019-02-27T05:22:13.339Z,1024.61
2019-02-27T05:23:13.327Z,1024.63
2019-02-27T05:24:13.320Z,1024.64
2019-02-27T05:25:14.466Z,1024.65
2019-02-27T05:26:13.297Z,1024.57
2019-02-27T05:27:13.285Z,1024.62
2019-02-27T05:28:13.274Z,1024.65
2019-02-27T05:29:13.260Z,1024.61
2019-02-27T05:30:13.255Z,1024.64
2019-02-27T05:31:13.240Z,1024.64
2019-02-27T05:32:13.228Z,1024.61
2019-02-27T05:33:13.216Z,1024.58
2019-02-27T05:34:13.731Z,1024.64
2019-02-27T05:35:13.196Z,1024.58
2019-02-27T05:36:13.183Z,1024.66
2019-02-27T05:37:13.183Z,1024.60
2019-02-27T05:38:13.167Z,1024.68
2019-02-27T05:39:14.946Z,1024.67
2019-02-27T05:40:13.140Z,1024.67
2019-02-27T05:41:13.130Z,1024.66
2019-02-27T05:42:13.258Z,1024.63
2019-02-27T05:43:13.947Z,1024.63
2019-02-27T05:44:13.095Z,1024.61
2019-02-27T05:45:13.084Z,1024.59
2019-02-27T05:46:15.020Z,1024.54
2019-02-27T05:47:13.063Z,1024.56
2019-02-27T05:48:13.051Z,1024.58
2019-02-27T05:49:13.039Z,1024.57
2019-02-27T05:50:13.030Z,1024.55
2019-02-27T05:51:13.027Z,1024.55
2019-02-27T05:52:14.379Z,1024.62
2019-02-27T05:53:12.998Z,1024.56
2019-02-27T05:54:12.984Z,1024.61
2019-02-27T05:55:12.973Z,1024.63
2019-02-27T05:56:15.488Z,1024.62
2019-02-27T05:57:12.956Z,1024.59
2019-02-27T05:58:12.944Z,1024.60
2019-02-27T05:59:12.938Z,1024.56
2019-02-27T06:00:12.919Z,1024.53
2019-02-27T06:01:12.908Z,1024.53
2019-02-27T06:02:12.896Z,1024.46
2019-02-27T06:03:12.885Z,1024.52
2019-02-27T06:04:12.888Z,1024.54
2019-02-27T06:05:12.866Z,1024.48
2019-02-27T06:06:12.860Z,1024.52
2019-02-27T06:07:12.841Z,1024.48
2019-02-27T06:08:12.839Z,1024.50
2019-02-27T06:09:12.821Z,1024.54
2019-02-27T06:10:12.876Z,1024.52
2019-02-27T06:11:12.797Z,1024.49
2019-02-27T06:12:12.790Z,1024.48
2019-02-27T06:13:14.195Z,1024.53
2019-02-27T06:14:12.766Z,1024.52
2019-02-27T06:15:12.754Z,1024.47
2019-02-27T06:16:12.749Z,1024.49
2019-02-27T06:17:13.503Z,1024.51
2019-02-27T06:18:12.719Z,1024.48
2019-02-27T06:19:12.709Z,1024.52
2019-02-27T06:20:12.698Z,1024.48
2019-02-27T06:21:13.347Z,1024.52
2019-02-27T06:22:12.677Z,1024.57
2019-02-27T06:23:12.668Z,1024.54
2019-02-27T06:24:12.870Z,1024.56
2019-02-27T06:25:12.643Z,1024.54
2019-02-27T06:26:12.630Z,1024.54
2019-02-27T06:27:12.623Z,1024.51
2019-02-27T06:28:12.612Z,1024.47
2019-02-27T06:29:12.595Z,1024.46
2019-02-27T06:30:12.588Z,1024.46
2019-02-27T06:31:12.579Z,1024.48
2019-02-27T06:32:12.942Z,1024.40
2019-02-27T06:33:12.552Z,1024.43
2019-02-27T06:34:12.541Z,1024.39
2019-02-27T06:35:12.529Z,1024.43
2019-02-27T06:36:12.522Z,1024.41
2019-02-27T06:37:15.352Z,1024.36
2019-02-27T06:38:12.497Z,1024.36
2019-02-27T06:39:12.489Z,1024.31
2019-02-27T06:40:12.478Z,1024.28
2019-02-27T06:41:15.386Z,1024.36
2019-02-27T06:42:12.491Z,1024.32
2019-02-27T06:43:12.442Z,1024.33
2019-02-27T06:44:12.435Z,1024.31
2019-02-27T06:45:12.748Z,1024.34
2019-02-27T06:46:12.407Z,1024.32
2019-02-27T06:47:12.398Z,1024.37
2019-02-27T06:48:12.388Z,1024.32
2019-02-27T06:49:12.376Z,1024.37
2019-02-27T06:50:12.367Z,1024.31
2019-02-27T06:51:12.353Z,1024.32
2019-02-27T06:52:12.343Z,1024.33
2019-02-27T06:53:15.511Z,1024.25
2019-02-27T06:54:12.320Z,1024.28
2019-02-27T06:55:13.207Z,1024.28
2019-02-27T06:56:12.297Z,1024.28
2019-02-27T06:57:12.290Z,1024.25
2019-02-27T06:58:14.278Z,1024.26
2019-02-27T06:59:12.265Z,1024.31
2019-02-27T07:00:12.261Z,1024.27
2019-02-27T07:01:13.270Z,1024.19
2019-02-27T07:02:12.233Z,1024.26
2019-02-27T07:03:12.247Z,1024.26
2019-02-27T07:04:12.209Z,1024.23
2019-02-27T07:05:13.571Z,1024.29
2019-02-27T07:06:12.192Z,1024.20
2019-02-27T07:07:12.176Z,1024.20
2019-02-27T07:08:12.165Z,1024.25
2019-02-27T07:09:12.237Z,1024.21
2019-02-27T07:10:12.150Z,1024.20
2019-02-27T07:11:12.131Z,1024.28
2019-02-27T07:12:12.121Z,1024.28
2019-02-27T07:13:12.115Z,1024.31
2019-02-27T07:14:12.105Z,1024.23
2019-02-27T07:15:12.789Z,1024.19
2019-02-27T07:16:12.080Z,1024.23
2019-02-27T07:17:12.063Z,1024.24
2019-02-27T07:18:12.053Z,1024.27
2019-02-27T07:19:13.186Z,1024.27
2019-02-27T07:20:12.030Z,1024.31
2019-02-27T07:21:12.032Z,1024.25
2019-02-27T07:22:12.678Z,1024.29
2019-02-27T07:23:11.999Z,1024.25
2019-02-27T07:24:11.986Z,1024.17
2019-02-27T07:25:11.973Z,1024.20
2019-02-27T07:26:13.277Z,1024.20
2019-02-27T07:27:11.956Z,1024.13
2019-02-27T07:28:11.939Z,1024.16
2019-02-27T07:29:21.134Z,1024.15
2019-02-27T07:30:36.404Z,1024.18
2019-02-27T07:31:36.392Z,1024.14
2019-02-27T07:32:36.375Z,1024.15
2019-02-27T07:33:37.974Z,1024.15
2019-02-27T07:34:36.352Z,1024.15
2019-02-27T07:35:36.341Z,1024.09
2019-02-27T07:36:38.510Z,1024.11
2019-02-27T07:37:36.353Z,1024.13
2019-02-27T07:38:36.311Z,1024.11
2019-02-27T07:39:36.295Z,1024.09
2019-02-27T07:40:36.290Z,1024.05
2019-02-27T07:41:36.273Z,1024.06
2019-02-27T07:42:36.379Z,1024.02
2019-02-27T07:43:36.251Z,1024.00
2019-02-27T07:44:36.238Z,1024.06
2019-02-27T07:45:36.229Z,1024.04
2019-02-27T07:46:36.222Z,1023.97
2019-02-27T07:47:36.205Z,1023.95
2019-02-27T07:48:36.193Z,1023.99
2019-02-27T07:49:36.200Z,1024.02
2019-02-27T07:50:36.169Z,1024.00
2019-02-27T07:51:36.170Z,1024.00
2019-02-27T07:52:36.148Z,1023.94
2019-02-27T07:53:36.135Z,1023.96
2019-02-27T07:54:36.125Z,1023.93
2019-02-27T07:55:36.113Z,1023.97
2019-02-27T07:56:36.101Z,1023.98
2019-02-27T07:57:36.092Z,1023.92
2019-02-27T07:58:36.085Z,1023.93
2019-02-27T07:59:38.120Z,1023.92
2019-02-27T08:00:36.058Z,1023.94
2019-02-27T08:01:43.457Z,1023.91
2019-02-27T08:03:00.526Z,1023.92
2019-02-27T08:04:00.507Z,1023.93
2019-02-27T08:05:00.500Z,1023.91
2019-02-27T08:06:02.465Z,1023.89
2019-02-27T08:07:00.477Z,1023.91
2019-02-27T08:08:00.463Z,1023.91
2019-02-27T08:09:00.449Z,1023.94
2019-02-27T08:10:00.757Z,1023.90
2019-02-27T08:11:00.425Z,1023.91
2019-02-27T08:12:00.426Z,1023.85
2019-02-27T08:13:00.405Z,1023.89
2019-02-27T08:14:00.730Z,1023.86
2019-02-27T08:15:00.387Z,1023.85
2019-02-27T08:16:00.374Z,1023.87
2019-02-27T08:17:00.361Z,1023.88
2019-02-27T08:18:00.401Z,1023.87
2019-02-27T08:19:00.343Z,1023.88
2019-02-27T08:20:00.332Z,1023.84
2019-02-27T08:21:00.322Z,1023.84
2019-02-27T08:22:00.303Z,1023.81
2019-02-27T08:23:00.289Z,1023.80
2019-02-27T08:24:05.538Z,1023.80
2019-02-27T08:25:24.772Z,1023.81
2019-02-27T08:26:24.744Z,1023.79
2019-02-27T08:27:24.762Z,1023.77
2019-02-27T08:28:24.725Z,1023.81
2019-02-27T08:29:24.709Z,1023.77
2019-02-27T08:30:24.699Z,1023.76
2019-02-27T08:31:27.916Z,1023.76
2019-02-27T08:32:24.673Z,1023.76
2019-02-27T08:33:24.662Z,1023.75
2019-02-27T08:34:24.654Z,1023.72
2019-02-27T08:35:24.643Z,1023.74
2019-02-27T08:36:24.628Z,1023.75
2019-02-27T08:37:24.617Z,1023.72
2019-02-27T08:38:24.622Z,1023.77
2019-02-27T08:39:24.598Z,1023.76
2019-02-27T08:40:25.314Z,1023.79
2019-02-27T08:41:24.572Z,1023.76
2019-02-27T08:42:24.581Z,1023.82
2019-02-27T08:43:24.550Z,1023.69
2019-02-27T08:44:24.547Z,1023.77
2019-02-27T08:45:27.197Z,1023.75
2019-02-27T08:46:24.513Z,1023.71
2019-02-27T08:47:24.504Z,1023.72
2019-02-27T08:48:24.493Z,1023.69
2019-02-27T08:49:25.092Z,1023.70
2019-02-27T08:50:24.472Z,1023.68
2019-02-27T08:51:24.459Z,1023.62
2019-02-27T08:52:24.446Z,1023.70
2019-02-27T08:53:26.798Z,1023.67
2019-02-27T08:54:24.437Z,1023.64
2019-02-27T08:55:24.412Z,1023.62
2019-02-27T08:56:24.406Z,1023.61
2019-02-27T08:57:24.391Z,1023.64
2019-02-27T08:58:26.676Z,1023.57
2019-02-27T08:59:24.370Z,1023.54
2019-02-27T09:00:24.362Z,1023.54
2019-02-27T09:01:24.359Z,1023.54
2019-02-27T09:02:24.335Z,1023.52
2019-02-27T09:03:24.325Z,1023.51
2019-02-27T09:04:24.326Z,1023.50
2019-02-27T09:05:24.307Z,1023.40
2019-02-27T09:06:27.284Z,1023.45
2019-02-27T09:07:24.278Z,1023.47
2019-02-27T09:08:24.268Z,1023.41
2019-02-27T09:09:24.257Z,1023.47
2019-02-27T09:10:26.668Z,1023.42
2019-02-27T09:11:25.293Z,1023.42
2019-02-27T09:12:24.222Z,1023.36
2019-02-27T09:13:24.211Z,1023.41
2019-02-27T09:14:24.212Z,1023.37
2019-02-27T09:15:24.192Z,1023.36
2019-02-27T09:16:26.012Z,1023.37
2019-02-27T09:17:26.915Z,1023.35
2019-02-27T09:18:24.156Z,1023.33
2019-02-27T09:19:24.147Z,1023.32
2019-02-27T09:20:24.133Z,1023.26
2019-02-27T09:21:24.905Z,1023.35
2019-02-27T09:22:24.109Z,1023.32
2019-02-27T09:23:24.099Z,1023.35
2019-02-27T09:24:24.096Z,1023.28
2019-02-27T09:25:24.989Z,1023.25
2019-02-27T09:26:24.356Z,1023.22
2019-02-27T09:27:24.055Z,1023.25
2019-02-27T09:28:24.047Z,1023.24
2019-02-27T09:29:24.033Z,1023.17
2019-02-27T09:30:28.835Z,1023.20
2019-02-27T09:31:24.008Z,1023.22
2019-02-27T09:32:24.005Z,1023.22
2019-02-27T09:33:23.986Z,1023.20
2019-02-27T09:34:26.671Z,1023.24
2019-02-27T09:35:23.964Z,1023.17
2019-02-27T09:36:23.953Z,1023.13
2019-02-27T09:37:23.941Z,1023.12
2019-02-27T09:38:24.834Z,1023.12
2019-02-27T09:39:23.925Z,1023.10
2019-02-27T09:40:23.913Z,1023.11
2019-02-27T09:41:23.895Z,1023.08
2019-02-27T09:42:23.887Z,1023.06
2019-02-27T09:43:24.129Z,1023.07
2019-02-27T09:44:23.879Z,1023.05
2019-02-27T09:45:23.857Z,1022.93
2019-02-27T09:46:23.847Z,1022.98
2019-02-27T09:47:25.845Z,1022.94
2019-02-27T09:48:23.820Z,1022.97
2019-02-27T09:49:23.807Z,1022.96
2019-02-27T09:50:23.795Z,1023.01
2019-02-27T09:51:23.793Z,1022.94
2019-02-27T09:52:23.807Z,1022.98
2019-02-27T09:53:23.760Z,1022.98
2019-02-27T09:54:23.756Z,1022.98
2019-02-27T09:55:23.746Z,1022.96
2019-02-27T09:56:26.058Z,1022.89
2019-02-27T09:57:23.722Z,1022.88
2019-02-27T09:58:23.713Z,1022.93
2019-02-27T09:59:23.695Z,1022.88
2019-02-27T10:00:25.949Z,1022.90
2019-02-27T10:01:23.673Z,1022.88
2019-02-27T10:02:23.665Z,1022.83
2019-02-27T10:03:23.650Z,1022.87
2019-02-27T10:04:25.920Z,1022.88
2019-02-27T10:05:23.629Z,1022.93
2019-02-27T10:06:23.620Z,1022.84
2019-02-27T10:07:23.611Z,1022.84
2019-02-27T10:08:25.299Z,1022.83
2019-02-27T10:09:23.585Z,1022.74
2019-02-27T10:10:23.576Z,1022.80
2019-02-27T10:11:23.563Z,1022.77
2019-02-27T10:12:27.116Z,1022.86
2019-02-27T10:13:23.542Z,1022.78
2019-02-27T10:14:23.539Z,1022.83
2019-02-27T10:15:25.129Z,1022.77
2019-02-27T10:16:23.509Z,1022.73
2019-02-27T10:17:23.501Z,1022.79
2019-02-27T10:18:23.486Z,1022.86
2019-02-27T10:19:23.478Z,1022.79
2019-02-27T10:20:23.474Z,1022.81
2019-02-27T10:21:23.452Z,1022.78
2019-02-27T10:22:24.645Z,1022.82
2019-02-27T10:23:23.431Z,1022.77
2019-02-27T10:24:23.422Z,1022.75
2019-02-27T10:25:23.409Z,1022.76
2019-02-27T10:26:23.397Z,1022.73
2019-02-27T10:27:25.487Z,1022.78
2019-02-27T10:28:23.376Z,1022.76
2019-02-27T10:29:23.373Z,1022.76
2019-02-27T10:30:23.358Z,1022.69
2019-02-27T10:31:25.965Z,1022.71
2019-02-27T10:32:23.334Z,1022.69
2019-02-27T10:33:23.323Z,1022.74
2019-02-27T10:34:23.309Z,1022.66
2019-02-27T10:35:23.297Z,1022.65
2019-02-27T10:36:23.290Z,1022.65
2019-02-27T10:37:23.492Z,1022.64
2019-02-27T10:38:26.090Z,1022.62
2019-02-27T10:39:23.258Z,1022.63
2019-02-27T10:40:23.242Z,1022.55
2019-02-27T10:41:23.233Z,1022.53
2019-02-27T10:42:23.224Z,1022.50
2019-02-27T10:43:23.211Z,1022.48
2019-02-27T10:44:23.258Z,1022.47
2019-02-27T10:45:23.189Z,1022.45
2019-02-27T10:46:23.642Z,1022.38
2019-02-27T10:47:23.166Z,1022.43
2019-02-27T10:48:23.155Z,1022.37
2019-02-27T10:49:23.144Z,1022.38
2019-02-27T10:50:23.134Z,1022.33
2019-02-27T10:51:23.125Z,1022.30
2019-02-27T10:52:24.417Z,1022.28
2019-02-27T10:53:27.094Z,1022.29
2019-02-27T10:54:23.089Z,1022.28
2019-02-27T10:55:23.082Z,1022.31
2019-02-27T10:56:24.249Z,1022.27
2019-02-27T10:57:23.065Z,1022.27
2019-02-27T10:58:24.602Z,1022.22
2019-02-27T10:59:23.085Z,1022.18
2019-02-27T11:00:25.224Z,1022.11
2019-02-27T11:01:23.014Z,1022.13
2019-02-27T11:02:23.605Z,1022.08
2019-02-27T11:03:26.140Z,1022.08
2019-02-27T11:04:22.982Z,1022.10
2019-02-27T11:05:22.974Z,1022.08
2019-02-27T11:06:22.966Z,1022.09
2019-02-27T11:07:22.954Z,1022.10
2019-02-27T11:08:22.946Z,1022.10
2019-02-27T11:09:22.927Z,1022.09
2019-02-27T11:10:22.921Z,1022.02
2019-02-27T11:11:22.913Z,1022.05
2019-02-27T11:12:22.897Z,1021.97
2019-02-27T11:13:22.888Z,1021.97
2019-02-27T11:14:22.880Z,1021.97
2019-02-27T11:15:22.864Z,1021.94
2019-02-27T11:16:22.851Z,1021.95
2019-02-27T11:17:22.846Z,1021.88
2019-02-27T11:18:22.830Z,1021.87
2019-02-27T11:19:22.829Z,1021.93
2019-02-27T11:20:24.584Z,1021.86
2019-02-27T11:21:22.804Z,1021.92
2019-02-27T11:22:22.787Z,1021.91
2019-02-27T11:23:22.776Z,1021.89
2019-02-27T11:24:24.695Z,1021.88
2019-02-27T11:25:23.231Z,1021.89
2019-02-27T11:26:22.745Z,1021.82
2019-02-27T11:27:22.739Z,1021.85
2019-02-27T11:28:22.727Z,1021.83
2019-02-27T11:29:23.875Z,1021.80
2019-02-27T11:30:22.700Z,1021.74
2019-02-27T11:31:22.694Z,1021.75
2019-02-27T11:32:23.932Z,1021.74
2019-02-27T11:33:25.976Z,1021.75
2019-02-27T11:34:22.660Z,1021.75
2019-02-27T11:35:25.236Z,1021.76
2019-02-27T11:36:22.637Z,1021.73
2019-02-27T11:37:22.623Z,1021.73
2019-02-27T11:38:24.858Z,1021.70
2019-02-27T11:39:22.603Z,1021.72
2019-02-27T11:40:22.598Z,1021.65
2019-02-27T11:41:22.583Z,1021.65
2019-02-27T11:42:22.596Z,1021.61
2019-02-27T11:43:22.560Z,1021.57
2019-02-27T11:44:22.551Z,1021.48
2019-02-27T11:45:24.657Z,1021.46
2019-02-27T11:46:22.531Z,1021.46
2019-02-27T11:47:22.516Z,1021.42
2019-02-27T11:48:22.843Z,1021.36
2019-02-27T11:49:22.493Z,1021.33
2019-02-27T11:50:22.482Z,1021.30
2019-02-27T11:51:22.470Z,1021.35
2019-02-27T11:52:22.458Z,1021.25
2019-02-27T11:53:22.450Z,1021.30
2019-02-27T11:54:22.445Z,1021.27
2019-02-27T11:55:24.347Z,1021.25
2019-02-27T11:56:22.415Z,1021.25
2019-02-27T11:57:22.407Z,1021.21
2019-02-27T11:58:22.395Z,1021.18
2019-02-27T11:59:22.384Z,1021.16
2019-02-27T12:00:22.372Z,1021.10
2019-02-27T12:01:22.770Z,1021.07
2019-02-27T12:02:28.770Z,1021.05
2019-02-27T12:03:46.826Z,1021.04
2019-02-27T12:04:46.806Z,1021.06
2019-02-27T12:05:46.803Z,1021.01
2019-02-27T12:06:46.791Z,1021.02
2019-02-27T12:07:50.785Z,1021.00
2019-02-27T12:08:46.769Z,1021.01
2019-02-27T12:09:46.753Z,1020.98
2019-02-27T12:10:46.744Z,1020.98
2019-02-27T12:11:48.721Z,1020.98